createdAt,value
2023-12-23T00:00:15.189Z,93234.84
2023-12-23T00:02:17.679Z,93205.50
2023-12-23T00:04:19.520Z,93209.69
2023-12-23T00:06:21.308Z,93214.06
2023-12-23T00:08:23.210Z,93218.63
2023-12-23T00:10:25.150Z,93213.59
2023-12-23T00:12:26.947Z,93205.66
2023-12-23T00:14:28.749Z,93187.47
2023-12-23T00:16:32.300Z,93183.72
2023-12-23T00:18:34.139Z,93175.13
2023-12-23T00:20:37.643Z,93175.31
2023-12-23T00:22:39.543Z,93172.22
2023-12-23T00:24:41.343Z,93155.69
2023-12-23T00:26:43.257Z,93160.53
2023-12-23T00:28:45.137Z,93169.31
2023-12-23T00:30:47.063Z,93157.47
2023-12-23T00:32:49.001Z,93197.03
2023-12-23T00:34:50.862Z,93183.41
2023-12-23T00:36:52.799Z,93155.66
2023-12-23T00:38:54.667Z,93167.84
2023-12-23T00:40:56.602Z,93193.31
2023-12-23T00:42:58.362Z,93186.00
2023-12-23T00:45:00.059Z,93173.38
2023-12-23T00:47:01.953Z,93170.59
2023-12-23T00:49:03.811Z,93163.31
2023-12-23T00:51:06.963Z,93162.81
2023-12-23T00:53:08.835Z,93180.47
2023-12-23T00:55:10.663Z,93178.06
2023-12-23T00:57:12.488Z,93186.66
2023-12-23T00:59:14.330Z,93174.81
2023-12-23T01:01:16.070Z,93178.22
2023-12-23T01:03:18.000Z,93163.16
2023-12-23T01:05:19.874Z,93156.97
2023-12-23T01:07:22.141Z,93147.22
2023-12-23T01:09:24.019Z,93143.28
2023-12-23T01:11:26.211Z,93131.09
2023-12-23T01:13:28.296Z,93140.97
2023-12-23T01:15:30.156Z,93138.94
2023-12-23T01:17:32.042Z,93113.84
2023-12-23T01:19:34.335Z,93114.34
2023-12-23T01:21:36.262Z,93104.25
2023-12-23T01:23:37.984Z,93090.28
2023-12-23T01:25:39.802Z,93104.06
2023-12-23T01:27:41.542Z,93076.97
2023-12-23T01:29:43.222Z,93052.84
2023-12-23T01:31:45.100Z,93046.38
2023-12-23T01:33:46.989Z,93083.34
2023-12-23T01:35:48.737Z,93078.50
2023-12-23T01:37:50.768Z,93068.78
2023-12-23T01:39:52.699Z,93048.97
2023-12-23T01:41:54.492Z,93054.34
2023-12-23T01:43:56.371Z,93084.81
2023-12-23T01:46:00.764Z,93050.00
2023-12-23T01:48:02.691Z,93018.22
2023-12-23T01:50:05.041Z,93039.44
2023-12-23T01:52:07.048Z,93038.47
2023-12-23T01:54:09.089Z,93072.50
2023-12-23T01:56:11.629Z,93029.41
2023-12-23T01:58:13.494Z,93048.19
2023-12-23T02:00:15.539Z,93047.72
2023-12-23T02:02:18.524Z,93026.66
2023-12-23T02:04:20.365Z,93007.97
2023-12-23T02:06:22.186Z,92992.53
2023-12-23T02:08:24.150Z,92999.28
2023-12-23T02:10:26.170Z,92981.25
2023-12-23T02:12:39.888Z,93011.91
2023-12-23T02:14:52.377Z,93024.97
2023-12-23T02:16:54.300Z,92985.28
2023-12-23T02:18:56.132Z,92987.88
2023-12-23T02:20:57.892Z,93006.56
2023-12-23T02:22:59.705Z,93008.47
2023-12-23T02:25:01.564Z,93034.06
2023-12-23T02:27:10.868Z,93000.66
2023-12-23T02:29:13.484Z,93008.78
2023-12-23T02:31:15.345Z,92998.38
2023-12-23T02:33:17.806Z,92981.06
2023-12-23T02:35:19.696Z,92968.38
2023-12-23T02:37:21.532Z,92964.16
2023-12-23T02:39:23.336Z,92996.22
2023-12-23T02:41:25.053Z,92972.88
2023-12-23T02:43:26.756Z,92985.16
2023-12-23T02:45:28.663Z,92966.53
2023-12-23T02:47:30.435Z,92963.75
2023-12-23T02:49:32.154Z,92989.81
2023-12-23T02:51:33.937Z,92971.19
2023-12-23T02:53:35.709Z,92975.09
2023-12-23T02:55:38.236Z,92979.13
2023-12-23T02:57:40.083Z,92920.44
2023-12-23T02:59:41.882Z,92997.00
2023-12-23T03:01:43.614Z,92976.03
2023-12-23T03:03:45.469Z,92998.28
2023-12-23T03:05:47.235Z,92948.66
2023-12-23T03:07:49.362Z,92996.75
2023-12-23T03:09:51.149Z,93010.09
2023-12-23T03:11:53.039Z,93030.41
2023-12-23T03:13:55.111Z,93020.06
2023-12-23T03:15:56.875Z,93046.94
2023-12-23T03:17:58.887Z,93005.00
2023-12-23T03:20:00.904Z,93002.25
2023-12-23T03:22:03.381Z,93018.50
2023-12-23T03:24:05.304Z,93021.38
2023-12-23T03:26:08.888Z,93027.44
2023-12-23T03:28:10.941Z,93047.19
2023-12-23T03:30:13.251Z,93019.34
2023-12-23T03:32:15.156Z,93035.34
2023-12-23T03:34:16.899Z,93016.22
2023-12-23T03:36:19.293Z,93005.34
2023-12-23T03:38:23.338Z,93016.59
2023-12-23T03:40:25.772Z,92986.47
2023-12-23T03:42:27.537Z,93026.81
2023-12-23T03:44:29.362Z,93015.16
2023-12-23T03:46:31.342Z,93015.47
2023-12-23T03:48:33.071Z,93019.03
2023-12-23T03:50:34.919Z,92995.25
2023-12-23T03:52:36.787Z,93013.53
2023-12-23T03:54:38.625Z,92990.81
2023-12-23T03:56:40.912Z,93012.91
2023-12-23T03:58:42.732Z,92985.19
2023-12-23T04:00:44.539Z,93007.38
2023-12-23T04:02:46.283Z,92999.91
2023-12-23T04:04:48.184Z,92990.97
2023-12-23T04:06:50.041Z,92976.22
2023-12-23T04:08:51.743Z,92965.06
2023-12-23T04:10:53.508Z,92972.72
2023-12-23T04:12:55.290Z,92953.56
2023-12-23T04:14:57.003Z,92971.66
2023-12-23T04:16:58.777Z,92978.78
2023-12-23T04:19:00.604Z,92960.44
2023-12-23T04:21:02.373Z,92976.75
2023-12-23T04:23:04.284Z,92986.84
2023-12-23T04:25:06.563Z,93005.66
2023-12-23T04:27:08.679Z,92997.22
2023-12-23T04:29:10.512Z,92995.69
2023-12-23T04:31:12.535Z,92995.34
2023-12-23T04:33:14.421Z,92976.19
2023-12-23T04:35:16.351Z,92971.31
2023-12-23T04:37:18.213Z,92965.88
2023-12-23T04:39:19.976Z,92986.13
2023-12-23T04:41:21.789Z,92976.75
2023-12-23T04:43:23.571Z,92985.22
2023-12-23T04:45:25.406Z,93013.31
2023-12-23T04:47:27.233Z,92991.22
2023-12-23T04:49:28.958Z,92990.00
2023-12-23T04:51:30.720Z,92987.69
2023-12-23T04:53:32.529Z,92979.19
2023-12-23T04:55:34.283Z,92971.16
2023-12-23T04:57:36.023Z,92991.19
2023-12-23T04:59:37.724Z,92998.47
2023-12-23T05:01:39.710Z,93000.81
2023-12-23T05:03:42.056Z,93052.72
2023-12-23T05:05:44.030Z,93027.91
2023-12-23T05:07:45.923Z,93072.19
2023-12-23T05:09:47.791Z,93055.34
2023-12-23T05:11:49.518Z,93071.31
2023-12-23T05:13:51.306Z,93039.72
2023-12-23T05:15:53.312Z,93060.94
2023-12-23T05:17:55.322Z,93035.19
2023-12-23T05:19:57.837Z,93065.50
2023-12-23T05:21:59.758Z,93062.59
2023-12-23T05:24:01.506Z,93054.00
2023-12-23T05:26:03.314Z,93078.81
2023-12-23T05:28:05.430Z,93078.66
2023-12-23T05:30:08.240Z,93061.66
2023-12-23T05:32:10.340Z,93068.78
2023-12-23T05:34:12.130Z,93074.31
2023-12-23T05:36:14.025Z,93062.28
2023-12-23T05:38:15.880Z,93060.34
2023-12-23T05:40:17.613Z,93046.25
2023-12-23T05:42:19.468Z,93049.25
2023-12-23T05:44:21.380Z,93036.94
2023-12-23T05:46:23.162Z,93034.47
2023-12-23T05:48:25.132Z,93024.72
2023-12-23T05:50:27.048Z,93028.47
2023-12-23T05:52:28.885Z,93031.13
2023-12-23T05:54:30.628Z,93038.22
2023-12-23T05:56:32.442Z,93057.34
2023-12-23T05:58:34.257Z,93036.59
2023-12-23T06:00:36.030Z,93055.31
2023-12-23T06:02:37.876Z,93067.00
2023-12-23T06:04:39.626Z,93057.66
2023-12-23T06:06:41.378Z,93030.56
2023-12-23T06:08:43.157Z,93037.47
2023-12-23T06:10:50.957Z,93049.09
2023-12-23T06:12:59.408Z,93034.75
2023-12-23T06:15:01.226Z,93059.59
2023-12-23T06:17:03.075Z,93055.50
2023-12-23T06:19:04.938Z,93055.72
2023-12-23T06:21:06.661Z,93065.50
2023-12-23T06:23:08.522Z,93067.13
2023-12-23T06:25:10.270Z,93064.22
2023-12-23T06:27:12.015Z,93060.13
2023-12-23T06:29:13.953Z,93051.19
2023-12-23T06:31:15.686Z,93045.41
2023-12-23T06:33:17.486Z,93075.78
2023-12-23T06:35:19.986Z,93060.13
2023-12-23T06:37:21.777Z,93046.06
2023-12-23T06:39:25.526Z,93040.91
2023-12-23T06:41:27.425Z,93034.50
2023-12-23T06:43:45.528Z,93015.25
2023-12-23T06:45:51.850Z,93035.84
2023-12-23T06:47:53.755Z,93036.13
2023-12-23T06:49:55.704Z,93072.06
2023-12-23T06:51:57.562Z,93056.00
2023-12-23T06:54:00.037Z,93077.91
2023-12-23T06:56:05.883Z,93067.44
2023-12-23T06:58:08.408Z,93079.25
2023-12-23T07:00:10.700Z,93069.44
2023-12-23T07:02:12.596Z,93075.63
2023-12-23T07:04:14.383Z,93093.00
2023-12-23T07:06:16.290Z,93076.88
2023-12-23T07:08:18.137Z,93072.28
2023-12-23T07:10:19.906Z,93093.78
2023-12-23T07:12:21.712Z,93102.31
2023-12-23T07:14:23.901Z,93101.50
2023-12-23T07:16:25.705Z,93102.25
2023-12-23T07:18:27.592Z,93100.66
2023-12-23T07:20:29.362Z,93093.78
2023-12-23T07:22:31.205Z,93102.06
2023-12-23T07:24:33.043Z,93090.25
2023-12-23T07:26:36.324Z,93093.91
2023-12-23T07:28:38.166Z,93101.75
2023-12-23T07:30:46.186Z,93104.84
2023-12-23T07:32:48.460Z,93088.38
2023-12-23T07:34:50.961Z,93120.97
2023-12-23T07:36:52.830Z,93115.34
2023-12-23T07:38:54.541Z,93123.22
2023-12-23T07:40:56.473Z,93132.31
2023-12-23T07:42:58.312Z,93123.28
2023-12-23T07:45:00.047Z,93137.19
2023-12-23T07:47:01.877Z,93132.81
2023-12-23T07:49:04.376Z,93109.47
2023-12-23T07:51:10.020Z,93109.59
2023-12-23T07:53:11.922Z,93120.53
2023-12-23T07:55:13.810Z,93142.31
2023-12-23T07:57:15.578Z,93144.75
2023-12-23T07:59:17.508Z,93156.38
2023-12-23T08:01:19.632Z,93149.97
2023-12-23T08:03:21.434Z,93159.03
2023-12-23T08:05:23.380Z,93178.53
2023-12-23T08:07:25.171Z,93177.47
2023-12-23T08:09:26.907Z,93170.63
2023-12-23T08:11:28.788Z,93183.78
2023-12-23T08:13:30.694Z,93193.44
2023-12-23T08:15:32.485Z,93202.03
2023-12-23T08:17:34.408Z,93215.38
2023-12-23T08:19:36.264Z,93181.16
2023-12-23T08:21:38.007Z,93192.81
2023-12-23T08:23:40.095Z,93217.56
2023-12-23T08:25:41.828Z,93227.84
2023-12-23T08:27:43.620Z,93211.88
2023-12-23T08:29:45.405Z,93229.88
2023-12-23T08:31:47.350Z,93253.06
2023-12-23T08:33:49.285Z,93239.81
2023-12-23T08:35:51.126Z,93274.34
2023-12-23T08:37:53.490Z,93302.81
2023-12-23T08:39:55.738Z,93337.03
2023-12-23T08:41:57.591Z,93329.72
2023-12-23T08:43:59.459Z,93329.94
2023-12-23T08:46:01.302Z,93349.53
2023-12-23T08:48:03.248Z,93341.72
2023-12-23T08:50:05.468Z,93334.19
2023-12-23T08:52:07.710Z,93374.97
2023-12-23T08:54:09.429Z,93366.88
2023-12-23T08:56:11.311Z,93381.44
2023-12-23T08:58:14.947Z,93385.16
2023-12-23T09:00:16.946Z,93410.13
2023-12-23T09:02:18.958Z,93387.28
2023-12-23T09:04:20.734Z,93431.44
2023-12-23T09:06:22.695Z,93437.38
2023-12-23T09:08:24.578Z,93421.34
2023-12-23T09:10:26.307Z,93431.63
2023-12-23T09:12:28.035Z,93418.66
2023-12-23T09:14:31.215Z,93423.06
2023-12-23T09:16:33.038Z,93432.19
2023-12-23T09:18:34.939Z,93427.09
2023-12-23T09:20:36.773Z,93429.81
2023-12-23T09:22:38.609Z,93422.63
2023-12-23T09:24:42.702Z,93450.28
2023-12-23T09:26:44.573Z,93442.22
2023-12-23T09:28:46.294Z,93472.47
2023-12-23T09:30:48.733Z,93477.50
2023-12-23T09:32:51.217Z,93462.56
2023-12-23T09:34:55.442Z,93493.25
2023-12-23T09:36:57.328Z,93461.41
2023-12-23T09:38:59.315Z,93536.00
2023-12-23T09:41:01.218Z,93481.56
2023-12-23T09:43:02.989Z,93481.72
2023-12-23T09:45:05.494Z,93499.25
2023-12-23T09:47:07.924Z,93558.47
2023-12-23T09:49:09.767Z,93569.22
2023-12-23T09:51:12.333Z,93555.50
2023-12-23T09:53:15.113Z,93586.25
2023-12-23T09:55:18.333Z,93554.75
2023-12-23T09:57:20.794Z,93557.09
2023-12-23T09:59:23.232Z,93565.25
2023-12-23T10:01:25.154Z,93578.31
2023-12-23T10:03:27.052Z,93597.38
2023-12-23T10:05:29.273Z,93577.44
2023-12-23T10:07:31.110Z,93587.25
2023-12-23T10:09:34.884Z,93586.22
2023-12-23T10:11:36.740Z,93584.47
2023-12-23T10:13:38.502Z,93579.66
2023-12-23T10:15:42.387Z,93611.41
2023-12-23T10:17:44.181Z,93630.84
2023-12-23T10:19:48.400Z,93634.16
2023-12-23T10:21:50.226Z,93628.72
2023-12-23T10:23:52.166Z,93641.06
2023-12-23T10:25:54.010Z,93634.47
2023-12-23T10:27:59.974Z,93638.59
2023-12-23T10:30:05.060Z,93659.31
2023-12-23T10:32:07.610Z,93655.91
2023-12-23T10:34:12.876Z,93650.44
2023-12-23T10:36:15.854Z,93653.19
2023-12-23T10:38:22.049Z,93663.19
2023-12-23T10:40:29.307Z,93662.69
2023-12-23T10:42:31.821Z,93666.88
2023-12-23T10:44:34.438Z,93665.06
2023-12-23T10:46:36.308Z,93678.44
2023-12-23T10:48:39.423Z,93681.31
2023-12-23T10:50:42.072Z,93697.09
2023-12-23T10:52:44.338Z,93687.97
2023-12-23T10:54:46.410Z,93667.72
2023-12-23T10:56:50.678Z,93686.31
2023-12-23T10:58:52.765Z,93676.31
2023-12-23T11:00:55.538Z,93683.53
2023-12-23T11:02:59.075Z,93675.28
2023-12-23T11:05:03.628Z,93680.81
2023-12-23T11:07:06.022Z,93684.47
2023-12-23T11:09:09.777Z,93680.69
2023-12-23T11:11:11.973Z,93664.94
2023-12-23T11:13:14.765Z,93658.13
2023-12-23T11:15:16.752Z,93656.88
2023-12-23T11:17:26.058Z,93663.88
2023-12-23T11:19:28.039Z,93662.38
2023-12-23T11:21:31.303Z,93668.06
2023-12-23T11:23:34.133Z,93659.25
2023-12-23T11:25:40.399Z,93655.03
2023-12-23T11:27:42.360Z,93637.97
2023-12-23T11:29:44.136Z,93648.06
2023-12-23T11:31:45.896Z,93642.03
2023-12-23T11:33:47.929Z,93649.84
2023-12-23T11:36:02.809Z,93655.03
2023-12-23T11:38:05.059Z,93639.78
2023-12-23T11:40:07.708Z,93648.28
2023-12-23T11:42:09.854Z,93641.44
2023-12-23T11:44:14.851Z,93630.72
2023-12-23T11:46:18.759Z,93616.22
2023-12-23T11:48:22.575Z,93633.47
2023-12-23T11:50:24.592Z,93621.25
2023-12-23T11:52:26.843Z,93626.94
2023-12-23T11:54:29.065Z,93634.06
2023-12-23T11:56:31.018Z,93629.75
2023-12-23T11:58:33.288Z,93618.34
2023-12-23T12:00:37.698Z,93627.84
2023-12-23T12:02:39.461Z,93627.31
2023-12-23T12:04:41.227Z,93631.75
2023-12-23T12:06:43.070Z,93639.84
2023-12-23T12:08:44.866Z,93630.28
2023-12-23T12:10:47.519Z,93635.03
2023-12-23T12:12:50.208Z,93642.66
2023-12-23T12:14:52.324Z,93632.94
2023-12-23T12:16:54.922Z,93630.53
2023-12-23T12:18:56.819Z,93639.00
2023-12-23T12:20:58.786Z,93643.56
2023-12-23T12:23:02.475Z,93658.84
2023-12-23T12:25:05.556Z,93625.84
2023-12-23T12:27:07.396Z,93643.88
2023-12-23T12:29:09.952Z,93624.34
2023-12-23T12:31:13.881Z,93611.03
2023-12-23T12:33:18.696Z,93631.69
2023-12-23T12:35:20.577Z,93634.25
2023-12-23T12:37:22.456Z,93647.56
2023-12-23T12:39:24.458Z,93644.59
2023-12-23T12:41:26.374Z,93651.72
2023-12-23T12:43:32.837Z,93648.81
2023-12-23T12:45:42.069Z,93649.28
2023-12-23T12:47:46.153Z,93649.28
2023-12-23T12:49:59.435Z,93660.53
2023-12-23T12:52:07.793Z,93666.91
2023-12-23T12:54:10.075Z,93670.59
2023-12-23T12:56:13.004Z,93657.41
2023-12-23T12:58:15.239Z,93678.91
2023-12-23T13:00:17.324Z,93683.47
2023-12-23T13:02:20.062Z,93679.84
2023-12-23T13:04:22.025Z,93704.34
2023-12-23T13:06:23.734Z,93701.91
2023-12-23T13:08:25.573Z,93696.25
2023-12-23T13:10:27.476Z,93710.28
2023-12-23T13:12:29.237Z,93711.34
2023-12-23T13:14:31.014Z,93712.88
2023-12-23T13:16:32.759Z,93706.59
2023-12-23T13:18:45.574Z,93690.19
2023-12-23T13:20:54.728Z,93691.31
2023-12-23T13:22:56.786Z,93682.91
2023-12-23T13:24:58.941Z,93678.56
2023-12-23T13:27:00.621Z,93673.25
2023-12-23T13:29:02.417Z,93665.13
2023-12-23T13:31:04.763Z,93660.53
2023-12-23T13:33:08.619Z,93670.13
2023-12-23T13:35:10.289Z,93655.41
2023-12-23T13:37:12.095Z,93655.94
2023-12-23T13:39:14.274Z,93670.13
2023-12-23T13:41:21.737Z,93661.50
2023-12-23T13:43:24.640Z,93667.69
2023-12-23T13:45:26.400Z,93667.69
2023-12-23T13:47:28.463Z,93664.47
2023-12-23T13:49:30.353Z,93662.66
2023-12-23T13:51:33.281Z,93676.09
2023-12-23T13:53:35.102Z,93673.41
2023-12-23T13:55:36.884Z,93683.44
2023-12-23T13:57:38.598Z,93673.97
2023-12-23T13:59:40.392Z,93680.50
2023-12-23T14:01:42.209Z,93681.03
2023-12-23T14:03:45.265Z,93665.78
2023-12-23T14:05:47.547Z,93669.22
2023-12-23T14:07:49.480Z,93670.22
2023-12-23T14:09:51.357Z,93661.72
2023-12-23T14:11:53.228Z,93667.78
2023-12-23T14:13:54.999Z,93669.41
2023-12-23T14:15:57.080Z,93671.03
2023-12-23T14:17:58.970Z,93680.13
2023-12-23T14:20:00.780Z,93673.63
2023-12-23T14:22:02.563Z,93668.44
2023-12-23T14:24:04.706Z,93667.97
2023-12-23T14:26:06.522Z,93666.31
2023-12-23T14:28:08.282Z,93655.38
2023-12-23T14:30:10.833Z,93639.72
2023-12-23T14:32:12.657Z,93615.75
2023-12-23T14:34:15.207Z,93617.88
2023-12-23T14:36:17.405Z,93625.91
2023-12-23T14:38:19.286Z,93625.50
2023-12-23T14:40:21.104Z,93651.41
2023-12-23T14:42:22.845Z,93661.53
2023-12-23T14:44:24.687Z,93665.28
2023-12-23T14:46:26.529Z,93668.31
2023-12-23T14:48:28.542Z,93666.47
2023-12-23T14:50:30.527Z,93665.59
2023-12-23T14:52:32.429Z,93647.16
2023-12-23T14:54:34.292Z,93639.91
2023-12-23T14:56:36.167Z,93639.16
2023-12-23T14:58:37.918Z,93637.44
2023-12-23T15:00:43.120Z,93626.91
2023-12-23T15:02:45.035Z,93612.53
2023-12-23T15:04:46.878Z,93601.22
2023-12-23T15:06:49.128Z,93607.50
2023-12-23T15:08:50.937Z,93602.88
2023-12-23T15:10:52.774Z,93611.94
2023-12-23T15:12:54.817Z,93602.59
2023-12-23T15:14:56.689Z,93597.31
2023-12-23T15:16:59.539Z,93610.00
2023-12-23T15:19:01.961Z,93630.34
2023-12-23T15:21:04.551Z,93618.31
2023-12-23T15:23:06.309Z,93608.09
2023-12-23T15:25:08.193Z,93597.22
2023-12-23T15:27:09.952Z,93593.44
2023-12-23T15:29:11.751Z,93576.53
2023-12-23T15:31:13.614Z,93577.59
2023-12-23T15:33:16.082Z,93568.75
2023-12-23T15:35:19.447Z,93583.75
2023-12-23T15:37:22.008Z,93601.06
2023-12-23T15:39:23.789Z,93606.63
2023-12-23T15:41:25.556Z,93612.94
2023-12-23T15:43:27.518Z,93614.41
2023-12-23T15:45:29.229Z,93632.63
2023-12-23T15:47:31.140Z,93643.13
2023-12-23T15:49:35.218Z,93643.34
2023-12-23T15:51:39.069Z,93631.97
2023-12-23T15:53:41.723Z,93626.19
2023-12-23T15:55:43.656Z,93638.00
2023-12-23T15:57:45.486Z,93631.06
2023-12-23T15:59:47.282Z,93632.81
2023-12-23T16:01:49.048Z,93625.09
2023-12-23T16:03:50.870Z,93616.00
2023-12-23T16:05:53.010Z,93587.19
2023-12-23T16:07:54.842Z,93580.09
2023-12-23T16:09:56.577Z,93574.91
2023-12-23T16:11:58.456Z,93584.81
2023-12-23T16:14:02.611Z,93575.53
2023-12-23T16:16:06.340Z,93583.56
2023-12-23T16:18:09.035Z,93587.69
2023-12-23T16:20:11.478Z,93594.06
2023-12-23T16:22:13.592Z,93588.66
2023-12-23T16:24:15.404Z,93582.19
2023-12-23T16:26:17.828Z,93582.03
2023-12-23T16:28:19.652Z,93578.06
2023-12-23T16:30:21.609Z,93577.94
2023-12-23T16:32:23.489Z,93572.50
2023-12-23T16:34:25.335Z,93572.78
2023-12-23T16:36:27.147Z,93572.50
2023-12-23T16:38:28.994Z,93580.78
2023-12-23T16:40:30.828Z,93584.72
2023-12-23T16:42:35.551Z,93575.22
2023-12-23T16:44:37.514Z,93580.47
2023-12-23T16:46:39.259Z,93591.97
2023-12-23T16:48:41.192Z,93564.41
2023-12-23T16:50:44.502Z,93567.03
2023-12-23T16:52:46.418Z,93555.50
2023-12-23T16:54:48.527Z,93558.78
2023-12-23T16:56:50.202Z,93561.50
2023-12-23T16:58:52.004Z,93535.34
2023-12-23T17:00:53.782Z,93561.34
2023-12-23T17:02:55.672Z,93544.66
2023-12-23T17:04:57.560Z,93550.13
2023-12-23T17:06:59.371Z,93548.88
2023-12-23T17:09:01.072Z,93562.34
2023-12-23T17:11:02.793Z,93535.78
2023-12-23T17:13:05.281Z,93524.50
2023-12-23T17:15:08.131Z,93544.72
2023-12-23T17:17:10.746Z,93545.41
2023-12-23T17:19:12.673Z,93542.66
2023-12-23T17:21:14.471Z,93530.34
2023-12-23T17:23:16.365Z,93516.44
2023-12-23T17:25:18.219Z,93539.38
2023-12-23T17:27:19.979Z,93535.66
2023-12-23T17:29:21.768Z,93542.19
2023-12-23T17:31:23.637Z,93548.50
2023-12-23T17:33:25.541Z,93570.28
2023-12-23T17:35:27.478Z,93536.03
2023-12-23T17:37:29.214Z,93578.47
2023-12-23T17:39:30.932Z,93586.94
2023-12-23T17:41:32.945Z,93570.97
2023-12-23T17:43:35.617Z,93561.28
2023-12-23T17:45:38.745Z,93569.41
2023-12-23T17:47:42.987Z,93587.84
2023-12-23T17:49:44.828Z,93573.16
2023-12-23T17:51:46.672Z,93620.13
2023-12-23T17:53:48.667Z,93586.84
2023-12-23T17:55:50.483Z,93580.94
2023-12-23T17:57:52.282Z,93603.22
2023-12-23T17:59:54.040Z,93607.19
2023-12-23T18:01:55.877Z,93587.66
2023-12-23T18:03:57.671Z,93609.94
2023-12-23T18:05:59.527Z,93603.69
2023-12-23T18:08:01.298Z,93596.56
2023-12-23T18:10:04.481Z,93619.66
2023-12-23T18:12:06.404Z,93578.00
2023-12-23T18:14:08.219Z,93614.03
2023-12-23T18:16:10.001Z,93593.53
2023-12-23T18:18:11.853Z,93593.53
2023-12-23T18:20:13.636Z,93599.72
2023-12-23T18:22:15.531Z,93601.97
2023-12-23T18:24:17.503Z,93589.72
2023-12-23T18:26:19.290Z,93582.72
2023-12-23T18:28:21.139Z,93582.34
2023-12-23T18:30:23.277Z,93591.44
2023-12-23T18:32:25.160Z,93563.34
2023-12-23T18:34:28.174Z,93571.88
2023-12-23T18:36:30.027Z,93582.91
2023-12-23T18:38:31.894Z,93568.09
2023-12-23T18:40:33.713Z,93567.91
2023-12-23T18:42:35.448Z,93573.81
2023-12-23T18:44:37.296Z,93560.28
2023-12-23T18:46:39.230Z,93574.94
2023-12-23T18:48:41.069Z,93576.25
2023-12-23T18:50:43.473Z,93550.50
2023-12-23T18:52:45.778Z,93584.72
2023-12-23T18:54:47.446Z,93575.41
2023-12-23T18:56:49.232Z,93583.22
2023-12-23T18:58:51.133Z,93576.16
2023-12-23T19:00:53.914Z,93610.47
2023-12-23T19:02:56.182Z,93584.19
2023-12-23T19:05:03.127Z,93619.47
2023-12-23T19:07:07.267Z,93622.59
2023-12-23T19:09:08.973Z,93609.50
2023-12-23T19:11:10.819Z,93621.91
2023-12-23T19:13:13.299Z,93626.25
2023-12-23T19:15:15.254Z,93619.78
2023-12-23T19:17:17.318Z,93625.25
2023-12-23T19:19:19.352Z,93615.59
2023-12-23T19:21:21.499Z,93617.31
2023-12-23T19:23:23.527Z,93638.34
2023-12-23T19:25:25.570Z,93609.72
2023-12-23T19:27:27.249Z,93625.63
2023-12-23T19:29:29.091Z,93652.78
2023-12-23T19:31:33.267Z,93617.50
2023-12-23T19:33:35.579Z,93634.41
2023-12-23T19:35:37.610Z,93640.97
2023-12-23T19:37:39.644Z,93634.38
2023-12-23T19:39:44.795Z,93638.16
2023-12-23T19:41:50.705Z,93636.81
2023-12-23T19:43:52.454Z,93675.94
2023-12-23T19:45:55.228Z,93635.06
2023-12-23T19:47:57.227Z,93646.09
2023-12-23T19:49:59.321Z,93670.63
2023-12-23T19:52:01.012Z,93679.78
2023-12-23T19:54:02.853Z,93668.72
2023-12-23T19:56:05.044Z,93661.88
2023-12-23T19:58:07.047Z,93670.47
2023-12-23T20:00:10.815Z,93688.03
2023-12-23T20:02:12.602Z,93678.63
2023-12-23T20:04:15.146Z,93690.53
2023-12-23T20:06:19.790Z,93701.28
2023-12-23T20:08:21.698Z,93686.81
2023-12-23T20:10:23.389Z,93693.50
2023-12-23T20:12:25.174Z,93686.59
2023-12-23T20:14:27.111Z,93667.66
2023-12-23T20:16:29.120Z,93686.09
2023-12-23T20:18:31.068Z,93670.34
2023-12-23T20:20:32.929Z,93677.44
2023-12-23T20:22:35.967Z,93671.72
2023-12-23T20:24:37.880Z,93672.13
2023-12-23T20:26:39.796Z,93686.63
2023-12-23T20:28:41.544Z,93689.50
2023-12-23T20:30:43.569Z,93666.88
2023-12-23T20:32:45.709Z,93671.53
2023-12-23T20:34:47.481Z,93690.34
2023-12-23T20:36:49.316Z,93670.31
2023-12-23T20:38:51.030Z,93689.38
2023-12-23T20:40:52.815Z,93693.81
2023-12-23T20:42:55.001Z,93696.88
2023-12-23T20:44:57.078Z,93685.22
2023-12-23T20:46:58.995Z,93701.09
2023-12-23T20:49:01.890Z,93702.94
2023-12-23T20:51:07.957Z,93697.34
2023-12-23T20:53:09.701Z,93714.41
2023-12-23T20:55:14.469Z,93706.63
2023-12-23T20:57:16.237Z,93712.00
2023-12-23T20:59:17.980Z,93708.81
2023-12-23T21:01:24.218Z,93726.59
2023-12-23T21:03:26.075Z,93732.38
2023-12-23T21:05:28.106Z,93728.09
2023-12-23T21:07:29.983Z,93731.34
2023-12-23T21:09:31.708Z,93731.13
2023-12-23T21:11:33.633Z,93729.88
2023-12-23T21:13:35.453Z,93741.34
2023-12-23T21:15:38.525Z,93740.53
2023-12-23T21:17:40.472Z,93752.78
2023-12-23T21:19:42.319Z,93750.00
2023-12-23T21:21:44.226Z,93755.66
2023-12-23T21:23:45.970Z,93774.03
2023-12-23T21:25:47.847Z,93782.72
2023-12-23T21:27:49.639Z,93772.44
2023-12-23T21:29:51.677Z,93785.50
2023-12-23T21:31:53.534Z,93775.63
2023-12-23T21:33:55.286Z,93782.16
2023-12-23T21:35:57.131Z,93796.63
2023-12-23T21:37:58.985Z,93794.03
2023-12-23T21:40:00.810Z,93806.69
2023-12-23T21:42:02.749Z,93796.16
2023-12-23T21:44:04.958Z,93798.75
2023-12-23T21:46:06.716Z,93818.28
2023-12-23T21:48:08.755Z,93798.66
2023-12-23T21:50:10.592Z,93798.94
2023-12-23T21:52:12.398Z,93803.53
2023-12-23T21:54:14.334Z,93818.19
2023-12-23T21:56:16.117Z,93829.53
2023-12-23T21:58:17.932Z,93830.41
2023-12-23T22:00:20.061Z,93841.34
2023-12-23T22:02:22.004Z,93817.66
2023-12-23T22:04:23.704Z,93800.84
2023-12-23T22:06:25.466Z,93810.66
2023-12-23T22:08:27.453Z,93829.72
2023-12-23T22:10:29.836Z,93824.38
2023-12-23T22:12:31.758Z,93833.69
2023-12-23T22:14:33.546Z,93824.94
2023-12-23T22:16:35.414Z,93824.31
2023-12-23T22:18:37.319Z,93821.56
2023-12-23T22:20:39.154Z,93819.59
2023-12-23T22:22:41.017Z,93818.94
2023-12-23T22:24:44.265Z,93825.81
2023-12-23T22:26:46.010Z,93823.88
2023-12-23T22:28:47.903Z,93813.19
2023-12-23T22:30:49.833Z,93817.41
2023-12-23T22:32:52.962Z,93812.69
2023-12-23T22:34:55.298Z,93814.31
2023-12-23T22:36:57.299Z,93813.44
2023-12-23T22:38:59.243Z,93818.47
2023-12-23T22:41:02.335Z,93815.31
2023-12-23T22:43:06.067Z,93815.31
2023-12-23T22:45:08.348Z,93808.34
2023-12-23T22:47:10.933Z,93815.44
2023-12-23T22:49:12.734Z,93826.50
2023-12-23T22:51:14.497Z,93823.50
2023-12-23T22:53:16.371Z,93824.28
2023-12-23T22:55:18.110Z,93818.53
2023-12-23T22:57:19.883Z,93815.94
2023-12-23T22:59:21.684Z,93816.59
2023-12-23T23:01:23.403Z,93815.16
2023-12-23T23:03:25.443Z,93815.81
2023-12-23T23:05:28.643Z,93822.66
2023-12-23T23:07:30.480Z,93853.63
2023-12-23T23:09:32.272Z,93849.44
2023-12-23T23:11:34.331Z,93852.56
2023-12-23T23:13:36.170Z,93845.47
2023-12-23T23:15:38.112Z,93852.47
2023-12-23T23:17:40.127Z,93843.19
2023-12-23T23:19:44.794Z,93846.78
2023-12-23T23:21:46.539Z,93848.97
2023-12-23T23:23:49.156Z,93844.84
2023-12-23T23:25:50.892Z,93851.75
2023-12-23T23:27:53.192Z,93857.19
2023-12-23T23:29:55.104Z,93853.94
2023-12-23T23:31:56.889Z,93856.69
2023-12-23T23:33:58.844Z,93864.09
2023-12-23T23:36:00.713Z,93866.53
2023-12-23T23:38:02.514Z,93878.72
2023-12-23T23:40:04.491Z,93883.94
2023-12-23T23:42:06.415Z,93871.38
2023-12-23T23:44:08.232Z,93874.72
2023-12-23T23:46:15.747Z,93871.50
2023-12-23T23:48:17.496Z,93872.59
2023-12-23T23:50:19.409Z,93871.38
2023-12-23T23:52:21.363Z,93873.69
2023-12-23T23:54:23.086Z,93875.34
2023-12-23T23:56:25.257Z,93870.03